sensor_id;sensor_type;location;lat;lon;timestamp;P1;durP1;ratioP1;P2;durP2;ratioP2
34775;SDS011;20989;52.566;13.346;2022-10-31T00:00:43;3.20;;;2.83;;
34775;SDS011;20989;52.566;13.346;2022-10-31T00:03:44;3.00;;;2.80;;
34775;SDS011;20989;52.566;13.346;2022-10-31T00:06:45;2.90;;;2.70;;
34775;SDS011;20989;52.566;13.346;2022-10-31T00:09:45;2.78;;;2.58;;
34775;SDS011;20989;52.566;13.346;2022-10-31T00:12:46;2.90;;;2.67;;
34775;SDS011;20989;52.566;13.346;2022-10-31T00:15:47;3.75;;;2.75;;
34775;SDS011;20989;52.566;13.346;2022-10-31T00:18:48;2.67;;;2.47;;
34775;SDS011;20989;52.566;13.346;2022-10-31T00:21:53;3.03;;;2.85;;
34775;SDS011;20989;52.566;13.346;2022-10-31T00:24:55;2.90;;;2.70;;
34775;SDS011;20989;52.566;13.346;2022-10-31T00:27:56;3.03;;;2.80;;
34775;SDS011;20989;52.566;13.346;2022-10-31T00:31:00;2.75;;;2.55;;
34775;SDS011;20989;52.566;13.346;2022-10-31T00:34:02;3.38;;;3.10;;
34775;SDS011;20989;52.566;13.346;2022-10-31T00:37:03;3.63;;;3.33;;
34775;SDS011;20989;52.566;13.346;2022-10-31T00:40:04;2.72;;;2.53;;
34775;SDS011;20989;52.566;13.346;2022-10-31T00:43:06;2.92;;;2.72;;
34775;SDS011;20989;52.566;13.346;2022-10-31T00:46:07;3.35;;;3.05;;
34775;SDS011;20989;52.566;13.346;2022-10-31T00:49:08;2.78;;;2.58;;
34775;SDS011;20989;52.566;13.346;2022-10-31T00:52:08;3.20;;;3.00;;
34775;SDS011;20989;52.566;13.346;2022-10-31T00:55:10;3.05;;;2.75;;
34775;SDS011;20989;52.566;13.346;2022-10-31T00:58:10;3.15;;;2.80;;
34775;SDS011;20989;52.566;13.346;2022-10-31T01:01:11;3.20;;;2.90;;
34775;SDS011;20989;52.566;13.346;2022-10-31T01:04:12;2.92;;;2.72;;
34775;SDS011;20989;52.566;13.346;2022-10-31T01:07:13;3.88;;;2.75;;
34775;SDS011;20989;52.566;13.346;2022-10-31T01:10:14;3.20;;;3.00;;
34775;SDS011;20989;52.566;13.346;2022-10-31T01:13:15;3.00;;;2.80;;
34775;SDS011;20989;52.566;13.346;2022-10-31T01:16:17;3.45;;;3.15;;
34775;SDS011;20989;52.566;13.346;2022-10-31T01:19:20;3.72;;;3.17;;
34775;SDS011;20989;52.566;13.346;2022-10-31T01:22:21;3.28;;;2.80;;
34775;SDS011;20989;52.566;13.346;2022-10-31T01:25:22;3.50;;;3.28;;
34775;SDS011;20989;52.566;13.346;2022-10-31T01:28:24;3.60;;;3.20;;
34775;SDS011;20989;52.566;13.346;2022-10-31T01:31:26;3.58;;;3.28;;
34775;SDS011;20989;52.566;13.346;2022-10-31T01:34:29;3.60;;;3.25;;
34775;SDS011;20989;52.566;13.346;2022-10-31T01:37:30;3.28;;;2.97;;
34775;SDS011;20989;52.566;13.346;2022-10-31T01:40:31;3.38;;;3.13;;
34775;SDS011;20989;52.566;13.346;2022-10-31T01:43:43;5.00;;;3.58;;
34775;SDS011;20989;52.566;13.346;2022-10-31T01:46:59;3.45;;;3.15;;
34775;SDS011;20989;52.566;13.346;2022-10-31T01:50:08;3.65;;;3.35;;
34775;SDS011;20989;52.566;13.346;2022-10-31T01:53:12;3.20;;;3.00;;
34775;SDS011;20989;52.566;13.346;2022-10-31T01:56:13;3.47;;;3.28;;
34775;SDS011;20989;52.566;13.346;2022-10-31T01:59:17;3.72;;;3.42;;
34775;SDS011;20989;52.566;13.346;2022-10-31T02:02:20;3.65;;;3.00;;
34775;SDS011;20989;52.566;13.346;2022-10-31T02:05:22;3.25;;;3.05;;
34775;SDS011;20989;52.566;13.346;2022-10-31T02:08:29;3.33;;;3.13;;
34775;SDS011;20989;52.566;13.346;2022-10-31T02:11:31;3.65;;;3.35;;
34775;SDS011;20989;52.566;13.346;2022-10-31T02:14:34;3.30;;;3.10;;
34775;SDS011;20989;52.566;13.346;2022-10-31T02:17:36;3.25;;;2.95;;
34775;SDS011;20989;52.566;13.346;2022-10-31T02:20:50;3.45;;;3.15;;
34775;SDS011;20989;52.566;13.346;2022-10-31T02:27:55;3.45;;;3.15;;
34775;SDS011;20989;52.566;13.346;2022-10-31T02:34:18;3.75;;;3.55;;
34775;SDS011;20989;52.566;13.346;2022-10-31T02:40:49;4.28;;;3.88;;
34775;SDS011;20989;52.566;13.346;2022-10-31T02:47:18;3.55;;;3.35;;
34775;SDS011;20989;52.566;13.346;2022-10-31T02:50:26;3.80;;;3.50;;
34775;SDS011;20989;52.566;13.346;2022-10-31T02:53:33;3.80;;;3.53;;
34775;SDS011;20989;52.566;13.346;2022-10-31T02:56:35;4.05;;;3.60;;
34775;SDS011;20989;52.566;13.346;2022-10-31T02:59:36;3.33;;;3.03;;
34775;SDS011;20989;52.566;13.346;2022-10-31T03:02:45;3.95;;;3.65;;
34775;SDS011;20989;52.566;13.346;2022-10-31T03:12:30;3.03;;;2.83;;
34775;SDS011;20989;52.566;13.346;2022-10-31T03:15:43;3.80;;;3.50;;
34775;SDS011;20989;52.566;13.346;2022-10-31T03:18:50;3.47;;;3.28;;
34775;SDS011;20989;52.566;13.346;2022-10-31T03:22:00;3.35;;;3.13;;
34775;SDS011;20989;52.566;13.346;2022-10-31T03:25:02;3.40;;;3.20;;
34775;SDS011;20989;52.566;13.346;2022-10-31T03:28:06;3.78;;;3.58;;
34775;SDS011;20989;52.566;13.346;2022-10-31T03:31:08;4.07;;;3.78;;
34775;SDS011;20989;52.566;13.346;2022-10-31T03:34:10;3.50;;;3.30;;
34775;SDS011;20989;52.566;13.346;2022-10-31T03:37:14;4.25;;;3.90;;
34775;SDS011;20989;52.566;13.346;2022-10-31T03:40:18;3.50;;;3.22;;
34775;SDS011;20989;52.566;13.346;2022-10-31T03:43:26;4.50;;;3.38;;
34775;SDS011;20989;52.566;13.346;2022-10-31T03:46:32;3.15;;;2.95;;
34775;SDS011;20989;52.566;13.346;2022-10-31T03:49:33;3.53;;;3.30;;
34775;SDS011;20989;52.566;13.346;2022-10-31T03:52:36;3.30;;;3.10;;
34775;SDS011;20989;52.566;13.346;2022-10-31T03:56:19;3.33;;;3.03;;
34775;SDS011;20989;52.566;13.346;2022-10-31T03:59:42;3.67;;;3.40;;
34775;SDS011;20989;52.566;13.346;2022-10-31T04:02:57;3.20;;;3.00;;
34775;SDS011;20989;52.566;13.346;2022-10-31T04:06:19;3.22;;;3.03;;
34775;SDS011;20989;52.566;13.346;2022-10-31T04:09:23;3.33;;;3.13;;
34775;SDS011;20989;52.566;13.346;2022-10-31T04:12:26;3.20;;;2.80;;
34775;SDS011;20989;52.566;13.346;2022-10-31T04:15:28;3.70;;;3.10;;
34775;SDS011;20989;52.566;13.346;2022-10-31T04:18:32;3.50;;;3.30;;
34775;SDS011;20989;52.566;13.346;2022-10-31T04:21:33;3.17;;;2.97;;
34775;SDS011;20989;52.566;13.346;2022-10-31T04:24:35;3.10;;;2.90;;
34775;SDS011;20989;52.566;13.346;2022-10-31T04:27:38;2.95;;;2.75;;
34775;SDS011;20989;52.566;13.346;2022-10-31T04:30:39;3.28;;;3.08;;
34775;SDS011;20989;52.566;13.346;2022-10-31T04:33:40;3.05;;;2.85;;
34775;SDS011;20989;52.566;13.346;2022-10-31T04:36:41;3.25;;;3.05;;
34775;SDS011;20989;52.566;13.346;2022-10-31T04:39:42;3.17;;;2.97;;
34775;SDS011;20989;52.566;13.346;2022-10-31T04:42:43;3.35;;;3.15;;
34775;SDS011;20989;52.566;13.346;2022-10-31T04:45:44;2.95;;;2.70;;
34775;SDS011;20989;52.566;13.346;2022-10-31T04:48:45;3.30;;;3.10;;
34775;SDS011;20989;52.566;13.346;2022-10-31T04:51:45;3.25;;;3.05;;
34775;SDS011;20989;52.566;13.346;2022-10-31T04:54:48;3.03;;;2.83;;
34775;SDS011;20989;52.566;13.346;2022-10-31T04:57:49;2.80;;;2.60;;
34775;SDS011;20989;52.566;13.346;2022-10-31T05:00:53;2.85;;;2.65;;
34775;SDS011;20989;52.566;13.346;2022-10-31T05:03:55;2.83;;;2.63;;
34775;SDS011;20989;52.566;13.346;2022-10-31T05:06:56;2.80;;;2.60;;
34775;SDS011;20989;52.566;13.346;2022-10-31T05:09:57;2.97;;;2.78;;
34775;SDS011;20989;52.566;13.346;2022-10-31T05:12:59;3.17;;;2.97;;
34775;SDS011;20989;52.566;13.346;2022-10-31T05:16:01;3.40;;;2.95;;
34775;SDS011;20989;52.566;13.346;2022-10-31T05:19:02;3.35;;;3.05;;
34775;SDS011;20989;52.566;13.346;2022-10-31T05:22:03;3.15;;;2.95;;
34775;SDS011;20989;52.566;13.346;2022-10-31T05:25:04;2.78;;;2.60;;
34775;SDS011;20989;52.566;13.346;2022-10-31T05:28:05;2.83;;;2.53;;
34775;SDS011;20989;52.566;13.346;2022-10-31T05:31:06;2.85;;;2.65;;
34775;SDS011;20989;52.566;13.346;2022-10-31T05:34:07;2.85;;;2.65;;
34775;SDS011;20989;52.566;13.346;2022-10-31T05:37:08;2.97;;;2.78;;
34775;SDS011;20989;52.566;13.346;2022-10-31T05:40:10;2.97;;;2.78;;
34775;SDS011;20989;52.566;13.346;2022-10-31T05:43:12;3.08;;;2.88;;
34775;SDS011;20989;52.566;13.346;2022-10-31T05:46:13;3.08;;;2.80;;
34775;SDS011;20989;52.566;13.346;2022-10-31T05:49:14;2.90;;;2.70;;
34775;SDS011;20989;52.566;13.346;2022-10-31T05:52:15;3.17;;;2.97;;
34775;SDS011;20989;52.566;13.346;2022-10-31T05:55:16;2.65;;;2.45;;
34775;SDS011;20989;52.566;13.346;2022-10-31T05:58:17;3.00;;;2.80;;
34775;SDS011;20989;52.566;13.346;2022-10-31T06:01:18;2.67;;;2.47;;
34775;SDS011;20989;52.566;13.346;2022-10-31T06:04:19;3.28;;;3.00;;
34775;SDS011;20989;52.566;13.346;2022-10-31T06:07:19;3.13;;;2.88;;
34775;SDS011;20989;52.566;13.346;2022-10-31T06:10:20;2.80;;;2.60;;
34775;SDS011;20989;52.566;13.346;2022-10-31T06:13:21;2.70;;;2.58;;
34775;SDS011;20989;52.566;13.346;2022-10-31T06:16:22;2.47;;;2.38;;
34775;SDS011;20989;52.566;13.346;2022-10-31T06:19:22;2.58;;;2.38;;
34775;SDS011;20989;52.566;13.346;2022-10-31T06:22:23;3.60;;;2.75;;
34775;SDS011;20989;52.566;13.346;2022-10-31T06:25:24;2.95;;;2.75;;
34775;SDS011;20989;52.566;13.346;2022-10-31T06:28:24;2.60;;;2.50;;
34775;SDS011;20989;52.566;13.346;2022-10-31T06:31:25;2.20;;;2.10;;
34775;SDS011;20989;52.566;13.346;2022-10-31T06:34:26;2.92;;;2.72;;
34775;SDS011;20989;52.566;13.346;2022-10-31T06:37:26;2.70;;;2.50;;
34775;SDS011;20989;52.566;13.346;2022-10-31T06:40:27;2.88;;;2.67;;
34775;SDS011;20989;52.566;13.346;2022-10-31T06:43:28;2.40;;;2.25;;
34775;SDS011;20989;52.566;13.346;2022-10-31T06:46:28;2.60;;;2.40;;
34775;SDS011;20989;52.566;13.346;2022-10-31T06:49:31;4.95;;;2.72;;
34775;SDS011;20989;52.566;13.346;2022-10-31T06:52:31;2.95;;;2.75;;
34775;SDS011;20989;52.566;13.346;2022-10-31T06:55:32;2.67;;;2.47;;
34775;SDS011;20989;52.566;13.346;2022-10-31T06:58:33;2.78;;;2.53;;
34775;SDS011;20989;52.566;13.346;2022-10-31T07:01:33;3.00;;;2.78;;
34775;SDS011;20989;52.566;13.346;2022-10-31T07:04:34;2.60;;;2.38;;
34775;SDS011;20989;52.566;13.346;2022-10-31T07:07:35;9.13;;;3.92;;
34775;SDS011;20989;52.566;13.346;2022-10-31T07:10:36;12.75;;;3.78;;
34775;SDS011;20989;52.566;13.346;2022-10-31T07:13:38;10.10;;;3.40;;
34775;SDS011;20989;52.566;13.346;2022-10-31T07:16:38;4.43;;;3.80;;
34775;SDS011;20989;52.566;13.346;2022-10-31T07:19:39;6.13;;;3.85;;
34775;SDS011;20989;52.566;13.346;2022-10-31T07:22:40;8.18;;;3.40;;
34775;SDS011;20989;52.566;13.346;2022-10-31T07:25:41;3.65;;;3.35;;
34775;SDS011;20989;52.566;13.346;2022-10-31T07:28:42;10.52;;;3.17;;
34775;SDS011;20989;52.566;13.346;2022-10-31T07:31:44;5.93;;;3.22;;
34775;SDS011;20989;52.566;13.346;2022-10-31T07:34:46;3.70;;;3.00;;
34775;SDS011;20989;52.566;13.346;2022-10-31T07:37:47;6.15;;;3.45;;
34775;SDS011;20989;52.566;13.346;2022-10-31T07:40:51;4.43;;;3.05;;
34775;SDS011;20989;52.566;13.346;2022-10-31T07:43:55;4.73;;;3.30;;
34775;SDS011;20989;52.566;13.346;2022-10-31T07:46:55;5.63;;;3.55;;
34775;SDS011;20989;52.566;13.346;2022-10-31T07:49:56;4.07;;;3.10;;
34775;SDS011;20989;52.566;13.346;2022-10-31T08:03:30;5.22;;;2.70;;
34775;SDS011;20989;52.566;13.346;2022-10-31T08:06:42;2.85;;;2.65;;
34775;SDS011;20989;52.566;13.346;2022-10-31T08:09:43;13.40;;;6.22;;
34775;SDS011;20989;52.566;13.346;2022-10-31T08:12:44;11.07;;;5.53;;
34775;SDS011;20989;52.566;13.346;2022-10-31T08:15:46;14.77;;;8.40;;
34775;SDS011;20989;52.566;13.346;2022-10-31T08:18:51;12.77;;;6.35;;
34775;SDS011;20989;52.566;13.346;2022-10-31T08:21:56;14.93;;;6.68;;
34775;SDS011;20989;52.566;13.346;2022-10-31T08:32:59;15.88;;;5.40;;
34775;SDS011;20989;52.566;13.346;2022-10-31T08:36:03;9.55;;;5.63;;
34775;SDS011;20989;52.566;13.346;2022-10-31T08:39:04;7.35;;;5.20;;
34775;SDS011;20989;52.566;13.346;2022-10-31T08:42:11;15.27;;;5.28;;
34775;SDS011;20989;52.566;13.346;2022-10-31T08:53:12;7.80;;;4.45;;
34775;SDS011;20989;52.566;13.346;2022-10-31T08:56:22;14.35;;;4.45;;
34775;SDS011;20989;52.566;13.346;2022-10-31T08:59:23;4.78;;;3.97;;
34775;SDS011;20989;52.566;13.346;2022-10-31T09:02:24;8.32;;;4.32;;
34775;SDS011;20989;52.566;13.346;2022-10-31T09:05:25;6.85;;;4.50;;
34775;SDS011;20989;52.566;13.346;2022-10-31T09:08:26;6.60;;;4.05;;
34775;SDS011;20989;52.566;13.346;2022-10-31T09:11:29;9.95;;;5.85;;
34775;SDS011;20989;52.566;13.346;2022-10-31T09:14:31;15.93;;;9.88;;
34775;SDS011;20989;52.566;13.346;2022-10-31T09:17:31;16.35;;;10.23;;
34775;SDS011;20989;52.566;13.346;2022-10-31T09:20:33;19.92;;;11.05;;
34775;SDS011;20989;52.566;13.346;2022-10-31T09:23:36;21.65;;;10.90;;
34775;SDS011;20989;52.566;13.346;2022-10-31T09:26:43;18.42;;;11.10;;
34775;SDS011;20989;52.566;13.346;2022-10-31T09:29:43;16.42;;;10.07;;
34775;SDS011;20989;52.566;13.346;2022-10-31T09:32:44;15.60;;;9.90;;
34775;SDS011;20989;52.566;13.346;2022-10-31T09:35:44;20.73;;;9.82;;
34775;SDS011;20989;52.566;13.346;2022-10-31T09:38:45;13.48;;;8.05;;
34775;SDS011;20989;52.566;13.346;2022-10-31T09:42:00;14.05;;;8.20;;
34775;SDS011;20989;52.566;13.346;2022-10-31T09:45:22;14.50;;;6.38;;
34775;SDS011;20989;52.566;13.346;2022-10-31T09:48:49;12.75;;;5.88;;
34775;SDS011;20989;52.566;13.346;2022-10-31T09:52:19;9.98;;;6.28;;
34775;SDS011;20989;52.566;13.346;2022-10-31T09:55:43;9.32;;;5.65;;
34775;SDS011;20989;52.566;13.346;2022-10-31T09:58:50;8.30;;;5.57;;
34775;SDS011;20989;52.566;13.346;2022-10-31T10:02:03;8.20;;;5.10;;
34775;SDS011;20989;52.566;13.346;2022-10-31T10:05:18;7.07;;;5.35;;
34775;SDS011;20989;52.566;13.346;2022-10-31T10:08:42;6.78;;;4.93;;
34775;SDS011;20989;52.566;13.346;2022-10-31T10:11:59;8.95;;;4.97;;
34775;SDS011;20989;52.566;13.346;2022-10-31T10:18:32;17.95;;;5.88;;
34775;SDS011;20989;52.566;13.346;2022-10-31T10:21:45;15.05;;;4.88;;
34775;SDS011;20989;52.566;13.346;2022-10-31T10:28:41;14.23;;;5.25;;
34775;SDS011;20989;52.566;13.346;2022-10-31T10:31:45;11.20;;;4.07;;
34775;SDS011;20989;52.566;13.346;2022-10-31T10:34:59;9.85;;;4.45;;
34775;SDS011;20989;52.566;13.346;2022-10-31T10:38:20;12.82;;;5.55;;
34775;SDS011;20989;52.566;13.346;2022-10-31T10:41:26;16.65;;;4.78;;
34775;SDS011;20989;52.566;13.346;2022-10-31T10:44:30;11.73;;;4.60;;
34775;SDS011;20989;52.566;13.346;2022-10-31T10:47:52;7.18;;;4.55;;
34775;SDS011;20989;52.566;13.346;2022-10-31T10:51:00;6.90;;;4.15;;
34775;SDS011;20989;52.566;13.346;2022-10-31T11:00:42;7.32;;;4.03;;
34775;SDS011;20989;52.566;13.346;2022-10-31T11:03:46;18.00;;;3.92;;
34775;SDS011;20989;52.566;13.346;2022-10-31T11:06:56;22.40;;;4.47;;
34775;SDS011;20989;52.566;13.346;2022-10-31T11:10:11;13.30;;;4.20;;
34775;SDS011;20989;52.566;13.346;2022-10-31T11:13:22;4.25;;;3.80;;
34775;SDS011;20989;52.566;13.346;2022-10-31T11:16:29;13.88;;;4.22;;
34775;SDS011;20989;52.566;13.346;2022-10-31T11:19:35;12.55;;;7.05;;
34775;SDS011;20989;52.566;13.346;2022-10-31T11:22:36;19.13;;;9.10;;
34775;SDS011;20989;52.566;13.346;2022-10-31T11:25:37;14.75;;;8.43;;
34775;SDS011;20989;52.566;13.346;2022-10-31T11:28:38;16.75;;;7.35;;
34775;SDS011;20989;52.566;13.346;2022-10-31T11:31:38;17.83;;;5.95;;
34775;SDS011;20989;52.566;13.346;2022-10-31T11:34:43;14.27;;;5.53;;
34775;SDS011;20989;52.566;13.346;2022-10-31T11:37:48;11.98;;;5.70;;
34775;SDS011;20989;52.566;13.346;2022-10-31T11:40:52;12.38;;;5.35;;
34775;SDS011;20989;52.566;13.346;2022-10-31T11:43:55;12.00;;;4.65;;
34775;SDS011;20989;52.566;13.346;2022-10-31T11:47:03;13.05;;;5.63;;
34775;SDS011;20989;52.566;13.346;2022-10-31T11:50:09;9.23;;;5.32;;
34775;SDS011;20989;52.566;13.346;2022-10-31T11:53:36;10.60;;;4.90;;
34775;SDS011;20989;52.566;13.346;2022-10-31T11:56:40;5.75;;;4.53;;
34775;SDS011;20989;52.566;13.346;2022-10-31T11:59:50;13.18;;;4.53;;
34775;SDS011;20989;52.566;13.346;2022-10-31T12:03:17;12.55;;;4.50;;
34775;SDS011;20989;52.566;13.346;2022-10-31T12:06:23;4.10;;;3.50;;
34775;SDS011;20989;52.566;13.346;2022-10-31T12:09:33;10.38;;;4.90;;
34775;SDS011;20989;52.566;13.346;2022-10-31T12:12:45;11.50;;;4.78;;
34775;SDS011;20989;52.566;13.346;2022-10-31T12:15:53;7.82;;;4.28;;
34775;SDS011;20989;52.566;13.346;2022-10-31T12:29:18;8.55;;;3.83;;
34775;SDS011;20989;52.566;13.346;2022-10-31T12:32:56;10.43;;;3.95;;
34775;SDS011;20989;52.566;13.346;2022-10-31T12:36:20;7.32;;;3.53;;
34775;SDS011;20989;52.566;13.346;2022-10-31T12:52:44;7.60;;;3.60;;
34775;SDS011;20989;52.566;13.346;2022-10-31T12:56:00;5.60;;;3.60;;
34775;SDS011;20989;52.566;13.346;2022-10-31T12:59:07;4.43;;;3.30;;
34775;SDS011;20989;52.566;13.346;2022-10-31T13:02:29;9.73;;;3.45;;
34775;SDS011;20989;52.566;13.346;2022-10-31T13:05:36;9.18;;;3.28;;
34775;SDS011;20989;52.566;13.346;2022-10-31T13:08:40;6.35;;;3.55;;
34775;SDS011;20989;52.566;13.346;2022-10-31T13:11:46;7.43;;;3.40;;
34775;SDS011;20989;52.566;13.346;2022-10-31T13:14:53;6.00;;;2.90;;
34775;SDS011;20989;52.566;13.346;2022-10-31T13:17:57;4.88;;;2.83;;
34775;SDS011;20989;52.566;13.346;2022-10-31T13:21:03;10.00;;;3.25;;
34775;SDS011;20989;52.566;13.346;2022-10-31T13:24:13;6.93;;;3.35;;
34775;SDS011;20989;52.566;13.346;2022-10-31T13:27:25;9.68;;;3.22;;
34775;SDS011;20989;52.566;13.346;2022-10-31T13:30:31;9.00;;;3.22;;
34775;SDS011;20989;52.566;13.346;2022-10-31T13:33:54;6.43;;;2.97;;
34775;SDS011;20989;52.566;13.346;2022-10-31T13:37:01;7.05;;;3.03;;
34775;SDS011;20989;52.566;13.346;2022-10-31T13:40:16;6.60;;;3.63;;
34775;SDS011;20989;52.566;13.346;2022-10-31T13:46:53;5.15;;;3.63;;
34775;SDS011;20989;52.566;13.346;2022-10-31T13:50:05;3.65;;;3.00;;
34775;SDS011;20989;52.566;13.346;2022-10-31T13:53:20;12.27;;;4.32;;
34775;SDS011;20989;52.566;13.346;2022-10-31T13:56:23;5.00;;;3.75;;
34775;SDS011;20989;52.566;13.346;2022-10-31T13:59:30;8.27;;;3.40;;
34775;SDS011;20989;52.566;13.346;2022-10-31T14:02:36;3.30;;;3.00;;
34775;SDS011;20989;52.566;13.346;2022-10-31T14:05:51;5.20;;;3.65;;
34775;SDS011;20989;52.566;13.346;2022-10-31T14:08:53;8.30;;;3.58;;
34775;SDS011;20989;52.566;13.346;2022-10-31T14:11:57;40.15;;;17.95;;
34775;SDS011;20989;52.566;13.346;2022-10-31T14:19:08;37.70;;;23.05;;
34775;SDS011;20989;52.566;13.346;2022-10-31T14:22:23;36.35;;;25.25;;
34775;SDS011;20989;52.566;13.346;2022-10-31T14:29:22;38.97;;;25.17;;
34775;SDS011;20989;52.566;13.346;2022-10-31T14:32:29;38.53;;;27.52;;
34775;SDS011;20989;52.566;13.346;2022-10-31T14:52:24;38.50;;;27.17;;
34775;SDS011;20989;52.566;13.346;2022-10-31T14:55:26;54.97;;;37.47;;
34775;SDS011;20989;52.566;13.346;2022-10-31T14:58:40;42.80;;;30.08;;
34775;SDS011;20989;52.566;13.346;2022-10-31T15:01:50;39.20;;;27.70;;
34775;SDS011;20989;52.566;13.346;2022-10-31T15:04:55;38.13;;;27.23;;
34775;SDS011;20989;52.566;13.346;2022-10-31T15:08:01;40.97;;;28.25;;
34775;SDS011;20989;52.566;13.346;2022-10-31T15:11:03;46.25;;;27.35;;
34775;SDS011;20989;52.566;13.346;2022-10-31T15:17:45;38.90;;;26.58;;
34775;SDS011;20989;52.566;13.346;2022-10-31T15:20:52;45.85;;;28.45;;
34775;SDS011;20989;52.566;13.346;2022-10-31T15:23:59;43.40;;;26.38;;
34775;SDS011;20989;52.566;13.346;2022-10-31T15:27:04;40.10;;;27.42;;
34775;SDS011;20989;52.566;13.346;2022-10-31T15:30:18;40.92;;;26.63;;
34775;SDS011;20989;52.566;13.346;2022-10-31T15:33:28;44.03;;;26.67;;
34775;SDS011;20989;52.566;13.346;2022-10-31T15:36:39;42.03;;;27.00;;
34775;SDS011;20989;52.566;13.346;2022-10-31T15:39:40;44.53;;;28.70;;
34775;SDS011;20989;52.566;13.346;2022-10-31T15:42:42;44.67;;;26.58;;
34775;SDS011;20989;52.566;13.346;2022-10-31T15:45:45;51.47;;;28.92;;
34775;SDS011;20989;52.566;13.346;2022-10-31T15:48:46;45.03;;;26.05;;
34775;SDS011;20989;52.566;13.346;2022-10-31T15:51:48;46.53;;;25.83;;
34775;SDS011;20989;52.566;13.346;2022-10-31T15:54:50;45.10;;;28.23;;
34775;SDS011;20989;52.566;13.346;2022-10-31T15:57:56;35.75;;;25.75;;
34775;SDS011;20989;52.566;13.346;2022-10-31T16:01:02;49.55;;;29.55;;
34775;SDS011;20989;52.566;13.346;2022-10-31T16:07:12;37.90;;;24.20;;
34775;SDS011;20989;52.566;13.346;2022-10-31T16:10:21;37.88;;;27.00;;
34775;SDS011;20989;52.566;13.346;2022-10-31T16:13:28;43.22;;;28.67;;
34775;SDS011;20989;52.566;13.346;2022-10-31T16:16:31;46.43;;;31.00;;
34775;SDS011;20989;52.566;13.346;2022-10-31T16:19:35;43.63;;;27.17;;
34775;SDS011;20989;52.566;13.346;2022-10-31T16:22:37;42.95;;;26.67;;
34775;SDS011;20989;52.566;13.346;2022-10-31T16:25:39;36.17;;;23.77;;
34775;SDS011;20989;52.566;13.346;2022-10-31T16:28:49;32.92;;;21.30;;
34775;SDS011;20989;52.566;13.346;2022-10-31T16:31:53;29.27;;;20.58;;
34775;SDS011;20989;52.566;13.346;2022-10-31T16:38:31;23.08;;;17.52;;
34775;SDS011;20989;52.566;13.346;2022-10-31T16:41:34;22.17;;;17.25;;
34775;SDS011;20989;52.566;13.346;2022-10-31T16:44:44;17.00;;;13.90;;
34775;SDS011;20989;52.566;13.346;2022-10-31T16:47:46;19.95;;;14.63;;
34775;SDS011;20989;52.566;13.346;2022-10-31T16:50:48;18.58;;;14.70;;
34775;SDS011;20989;52.566;13.346;2022-10-31T16:53:52;16.45;;;12.90;;
34775;SDS011;20989;52.566;13.346;2022-10-31T16:56:54;15.57;;;12.40;;
34775;SDS011;20989;52.566;13.346;2022-10-31T16:59:55;15.57;;;12.88;;
34775;SDS011;20989;52.566;13.346;2022-10-31T17:02:57;13.35;;;11.73;;
34775;SDS011;20989;52.566;13.346;2022-10-31T17:05:58;17.30;;;11.02;;
34775;SDS011;20989;52.566;13.346;2022-10-31T17:09:00;14.93;;;11.32;;
34775;SDS011;20989;52.566;13.346;2022-10-31T17:12:02;13.95;;;10.85;;
34775;SDS011;20989;52.566;13.346;2022-10-31T17:15:06;17.35;;;10.82;;
34775;SDS011;20989;52.566;13.346;2022-10-31T17:18:16;17.23;;;11.30;;
34775;SDS011;20989;52.566;13.346;2022-10-31T17:21:20;16.45;;;12.07;;
34775;SDS011;20989;52.566;13.346;2022-10-31T17:24:22;14.23;;;10.75;;
34775;SDS011;20989;52.566;13.346;2022-10-31T17:27:22;15.70;;;9.80;;
34775;SDS011;20989;52.566;13.346;2022-10-31T17:30:23;15.85;;;9.95;;
34775;SDS011;20989;52.566;13.346;2022-10-31T17:33:24;11.15;;;9.63;;
34775;SDS011;20989;52.566;13.346;2022-10-31T17:36:25;13.48;;;9.57;;
34775;SDS011;20989;52.566;13.346;2022-10-31T17:39:27;13.38;;;10.18;;
34775;SDS011;20989;52.566;13.346;2022-10-31T17:42:28;17.02;;;8.80;;
34775;SDS011;20989;52.566;13.346;2022-10-31T17:45:28;21.65;;;9.43;;
34775;SDS011;20989;52.566;13.346;2022-10-31T17:48:31;12.45;;;9.98;;
34775;SDS011;20989;52.566;13.346;2022-10-31T17:51:34;14.75;;;9.25;;
34775;SDS011;20989;52.566;13.346;2022-10-31T17:54:35;11.43;;;8.85;;
34775;SDS011;20989;52.566;13.346;2022-10-31T17:57:36;12.48;;;8.93;;
34775;SDS011;20989;52.566;13.346;2022-10-31T18:00:37;9.38;;;8.18;;
34775;SDS011;20989;52.566;13.346;2022-10-31T18:03:40;11.38;;;8.40;;
34775;SDS011;20989;52.566;13.346;2022-10-31T18:06:40;10.30;;;8.63;;
34775;SDS011;20989;52.566;13.346;2022-10-31T18:09:41;8.48;;;7.78;;
34775;SDS011;20989;52.566;13.346;2022-10-31T18:12:42;10.27;;;8.88;;
34775;SDS011;20989;52.566;13.346;2022-10-31T18:15:43;9.25;;;8.35;;
34775;SDS011;20989;52.566;13.346;2022-10-31T18:18:48;8.35;;;7.47;;
34775;SDS011;20989;52.566;13.346;2022-10-31T18:21:50;8.20;;;7.43;;
34775;SDS011;20989;52.566;13.346;2022-10-31T18:24:51;8.38;;;7.53;;
34775;SDS011;20989;52.566;13.346;2022-10-31T18:27:52;8.02;;;7.28;;
34775;SDS011;20989;52.566;13.346;2022-10-31T18:30:52;8.20;;;7.40;;
34775;SDS011;20989;52.566;13.346;2022-10-31T18:33:53;8.38;;;7.65;;
34775;SDS011;20989;52.566;13.346;2022-10-31T18:36:55;12.30;;;7.28;;
34775;SDS011;20989;52.566;13.346;2022-10-31T18:39:55;7.03;;;6.43;;
34775;SDS011;20989;52.566;13.346;2022-10-31T18:42:56;7.65;;;7.05;;
34775;SDS011;20989;52.566;13.346;2022-10-31T18:46:01;7.93;;;7.18;;
34775;SDS011;20989;52.566;13.346;2022-10-31T18:49:04;7.47;;;6.70;;
34775;SDS011;20989;52.566;13.346;2022-10-31T18:52:05;7.97;;;7.28;;
34775;SDS011;20989;52.566;13.346;2022-10-31T18:55:06;6.57;;;6.07;;
34775;SDS011;20989;52.566;13.346;2022-10-31T18:58:07;7.32;;;6.63;;
34775;SDS011;20989;52.566;13.346;2022-10-31T19:01:08;7.43;;;6.72;;
34775;SDS011;20989;52.566;13.346;2022-10-31T19:04:10;7.15;;;6.55;;
34775;SDS011;20989;52.566;13.346;2022-10-31T19:07:11;7.40;;;6.78;;
34775;SDS011;20989;52.566;13.346;2022-10-31T19:10:12;7.80;;;6.65;;
34775;SDS011;20989;52.566;13.346;2022-10-31T19:13:12;7.47;;;6.75;;
34775;SDS011;20989;52.566;13.346;2022-10-31T19:16:15;6.55;;;6.05;;
34775;SDS011;20989;52.566;13.346;2022-10-31T19:19:16;7.35;;;6.65;;
34775;SDS011;20989;52.566;13.346;2022-10-31T19:22:19;6.20;;;5.70;;
34775;SDS011;20989;52.566;13.346;2022-10-31T19:25:19;7.45;;;6.72;;
34775;SDS011;20989;52.566;13.346;2022-10-31T19:28:20;6.45;;;5.90;;
34775;SDS011;20989;52.566;13.346;2022-10-31T19:31:21;6.50;;;5.90;;
34775;SDS011;20989;52.566;13.346;2022-10-31T19:34:22;7.07;;;6.45;;
34775;SDS011;20989;52.566;13.346;2022-10-31T19:37:23;6.68;;;6.07;;
34775;SDS011;20989;52.566;13.346;2022-10-31T19:40:24;6.30;;;5.70;;
34775;SDS011;20989;52.566;13.346;2022-10-31T19:43:25;6.90;;;6.30;;
34775;SDS011;20989;52.566;13.346;2022-10-31T19:46:27;6.05;;;5.55;;
34775;SDS011;20989;52.566;13.346;2022-10-31T19:49:27;6.30;;;5.78;;
34775;SDS011;20989;52.566;13.346;2022-10-31T19:52:28;6.18;;;5.68;;
34775;SDS011;20989;52.566;13.346;2022-10-31T19:55:31;5.97;;;5.38;;
34775;SDS011;20989;52.566;13.346;2022-10-31T19:58:32;5.15;;;4.75;;
34775;SDS011;20989;52.566;13.346;2022-10-31T20:01:32;5.55;;;5.13;;
34775;SDS011;20989;52.566;13.346;2022-10-31T20:04:33;6.53;;;5.93;;
34775;SDS011;20989;52.566;13.346;2022-10-31T20:07:34;5.80;;;5.30;;
34775;SDS011;20989;52.566;13.346;2022-10-31T20:10:35;6.13;;;5.53;;